Time;durP1;ratioP1;P1;durP2;ratioP2;P2;SDS_P1;SDS_P2;PMS_P1;PMS_P2;Temp;Humidity;BMP_temperature;BMP_pressure;BME280_temperature;BME280_humidity;BME280_pressure;Samples;Min_cycle;Max_cycle;Signal;HPM_P1;HPM_P2
2021/07/17 00:02:00;;;;;;;27.35;19.67;;;;;;;17.37;95.96;99993.16;5112979;28;20284;-75
2021/07/17 00:04:27;;;;;;;21.30;17.67;;;;;;;17.62;93.08;99989.31;5112557;28;20231;-74
2021/07/17 00:06:53;;;;;;;23.42;18.55;;;;;;;17.38;94.16;99998.47;5113195;28;20274;-74
2021/07/17 00:09:20;;;;;;;21.50;17.80;;;;;;;17.41;94.22;99995.53;5113101;28;20573;-74
2021/07/17 00:11:49;;;;;;;21.60;17.33;;;;;;;17.27;95.92;100001.19;5113369;28;20609;-74
2021/07/17 00:14:16;;;;;;;23.58;17.40;;;;;;;17.39;95.71;100005.66;5113152;28;20185;-76
2021/07/17 00:16:43;;;;;;;23.00;18.20;;;;;;;17.18;96.69;100005.50;5112892;28;20215;-73
2021/07/17 00:19:10;;;;;;;25.58;19.10;;;;;;;17.03;98.69;100007.59;5116471;28;20618;-74
2021/07/17 00:21:37;;;;;;;25.63;19.17;;;;;;;17.12;98.63;100007.84;5117163;28;20668;-75
2021/07/17 00:24:04;;;;;;;25.88;18.95;;;;;;;17.20;97.89;100011.69;5117240;28;20184;-75
2021/07/17 00:26:31;;;;;;;23.48;18.55;;;;;;;17.34;97.17;100015.16;5116947;28;20555;-74
2021/07/17 00:28:58;;;;;;;25.98;18.33;;;;;;;17.16;97.59;100006.59;5116155;28;20188;-74
2021/07/17 00:31:25;;;;;;;22.27;18.02;;;;;;;17.27;97.18;100003.91;5117181;28;20187;-74
2021/07/17 00:33:51;;;;;;;22.13;18.35;;;;;;;17.13;97.33;100010.44;5117158;28;20200;-75
2021/07/17 00:36:18;;;;;;;23.40;17.65;;;;;;;17.26;96.87;100002.19;5117071;28;20509;-75
2021/07/17 00:38:45;;;;;;;28.50;18.63;;;;;;;17.05;99.18;100007.47;5116696;28;20205;-74
2021/07/17 00:41:11;;;;;;;28.50;20.10;;;;;;;16.96;99.54;100009.06;5116989;28;20196;-74
2021/07/17 00:43:38;;;;;;;30.20;21.30;;;;;;;16.85;100.00;100007.16;5116782;28;20196;-74
2021/07/17 00:46:06;;;;;;;29.90;21.38;;;;;;;16.77;100.00;100009.56;5116374;28;20249;-73
2021/07/17 00:48:33;;;;;;;26.48;20.15;;;;;;;16.82;100.00;100007.41;5116293;28;20270;-74
2021/07/17 00:50:59;;;;;;;21.95;18.45;;;;;;;16.95;100.00;100007.31;5116552;28;20275;-74
2021/07/17 00:53:26;;;;;;;23.40;18.08;;;;;;;16.96;99.62;100006.34;5116003;28;20669;-74
2021/07/17 00:55:55;;;;;;;23.83;18.77;;;;;;;16.90;100.00;100014.13;5116376;28;20571;-73
2021/07/17 00:58:24;;;;;;;22.75;19.38;;;;;;;17.06;99.59;100003.75;5116369;28;20536;-73
2021/07/17 01:00:52;;;;;;;24.13;17.60;;;;;;;17.00;98.62;100010.53;5116352;28;20540;-74
2021/07/17 01:03:20;;;;;;;22.48;17.55;;;;;;;16.97;99.03;100007.19;5115874;28;20234;-74
2021/07/17 01:05:50;;;;;;;27.67;18.55;;;;;;;16.65;100.00;100010.53;5116101;28;20627;-74
2021/07/17 01:08:18;;;;;;;24.25;18.75;;;;;;;16.68;100.00;100008.44;5115977;28;20218;-74
2021/07/17 01:10:45;;;;;;;26.80;19.05;;;;;;;16.84;100.00;100007.28;5115731;28;20180;-74
2021/07/17 01:13:14;;;;;;;30.67;19.10;;;;;;;16.81;100.00;100004.81;5115981;28;20184;-74
2021/07/17 01:15:41;;;;;;;27.02;17.25;;;;;;;16.62;100.00;100013.47;5115556;28;20192;-73
2021/07/17 01:18:08;;;;;;;23.60;19.30;;;;;;;16.64;100.00;100016.94;5115838;28;20184;-75
2021/07/17 01:20:38;;;;;;;25.85;19.00;;;;;;;16.66;100.00;100014.97;5116065;28;20642;-72
2021/07/17 01:23:07;;;;;;;27.65;19.85;;;;;;;16.69;100.00;100012.03;5116311;28;20196;-73
2021/07/17 01:25:34;;;;;;;26.50;17.45;;;;;;;16.67;100.00;100011.28;5115972;28;20609;-73
2021/07/17 01:28:02;;;;;;;30.40;19.75;;;;;;;16.61;100.00;100006.31;5115650;28;20207;-73
2021/07/17 01:30:31;;;;;;;22.90;18.05;;;;;;;16.84;100.00;100015.44;5114211;28;20274;-74
2021/07/17 01:32:58;;;;;;;19.08;16.35;;;;;;;16.90;98.55;100014.97;5116005;28;20454;-74
2021/07/17 01:35:25;;;;;;;23.13;18.20;;;;;;;16.63;99.38;100026.09;5116398;28;20964;-74
2021/07/17 01:37:52;;;;;;;24.50;18.77;;;;;;;16.33;100.00;100016.56;5116031;28;20965;-73
2021/07/17 01:40:21;;;;;;;28.80;21.25;;;;;;;16.31;100.00;100010.38;5115638;28;20195;-74
2021/07/17 01:42:49;;;;;;;26.02;19.63;;;;;;;16.16;100.00;100016.97;5115511;28;20236;-74
2021/07/17 01:45:23;;;;;;;22.75;20.33;;;;;;;16.25;100.00;100002.69;5115741;28;20220;-74
2021/07/17 01:47:50;;;;;;;24.55;19.58;;;;;;;16.36;100.00;99997.31;5114963;28;20294;-74
2021/07/17 01:50:18;;;;;;;24.63;18.55;;;;;;;16.54;100.00;99997.75;5115388;28;20188;-75
2021/07/17 01:52:51;;;;;;;28.42;19.75;;;;;;;16.56;100.00;99995.78;5115287;28;20192;-74
2021/07/17 01:55:20;;;;;;;22.67;17.25;;;;;;;16.52;100.00;99994.28;5115661;28;20222;-75
2021/07/17 01:57:49;;;;;;;22.33;18.75;;;;;;;16.47;100.00;99993.78;5115636;28;20199;-74
2021/07/17 02:00:21;;;;;;;39.97;32.00;;;;;;;16.42;100.00;99983.25;5115395;28;20191;-74
2021/07/17 02:02:48;;;;;;;23.23;19.50;;;;;;;16.44;100.00;99984.00;5114965;28;20226;-75
2021/07/17 02:05:18;;;;;;;27.90;20.00;;;;;;;16.49;100.00;99988.25;5115143;28;20195;-74
2021/07/17 02:07:46;;;;;;;27.15;20.65;;;;;;;16.40;100.00;99979.78;5114813;28;20229;-74
2021/07/17 02:10:14;;;;;;;23.60;18.42;;;;;;;16.34;100.00;99982.97;5114626;28;20203;-74
2021/07/17 02:12:56;;;;;;;26.95;19.92;;;;;;;16.20;100.00;99980.44;5114690;28;20183;-75
2021/07/17 02:15:23;;;;;;;25.40;19.52;;;;;;;16.12;100.00;99980.16;5114493;28;20199;-74
2021/07/17 02:17:50;;;;;;;28.00;19.27;;;;;;;16.03;100.00;99993.44;5114806;28;20234;-74
2021/07/17 02:20:17;;;;;;;29.63;19.77;;;;;;;16.03;100.00;99989.84;5114574;28;20187;-75
2021/07/17 02:22:44;;;;;;;22.48;18.25;;;;;;;16.10;100.00;99984.81;5114600;28;20199;-74
2021/07/17 02:25:11;;;;;;;25.23;17.55;;;;;;;16.03;100.00;99979.88;5114301;28;20617;-74
2021/07/17 02:27:38;;;;;;;27.92;19.83;;;;;;;16.15;100.00;99982.66;5114038;28;20186;-74
2021/07/17 02:30:07;;;;;;;24.30;19.98;;;;;;;16.20;100.00;99981.31;5113965;28;20203;-75
2021/07/17 02:32:34;;;;;;;28.08;18.90;;;;;;;16.24;100.00;99976.53;5114693;28;20222;-74
2021/07/17 02:35:00;;;;;;;24.60;17.52;;;;;;;16.36;100.00;99974.72;5114432;28;20190;-74
2021/07/17 02:37:27;;;;;;;30.65;19.35;;;;;;;16.49;100.00;99974.66;5113980;28;20242;-74
2021/07/17 02:39:53;;;;;;;24.00;19.15;;;;;;;16.51;100.00;99978.97;5114163;28;20195;-74
2021/07/17 02:42:20;;;;;;;22.92;17.55;;;;;;;16.54;100.00;99980.59;5113871;28;20188;-73
2021/07/17 02:44:47;;;;;;;23.85;18.02;;;;;;;16.35;100.00;99978.41;5113946;28;20221;-73
2021/07/17 02:47:15;;;;;;;21.38;17.17;;;;;;;16.27;100.00;99988.00;5114125;28;20184;-74
2021/07/17 02:49:41;;;;;;;22.63;18.17;;;;;;;16.09;100.00;99991.25;5113578;28;20535;-74
2021/07/17 02:52:08;;;;;;;23.10;17.90;;;;;;;16.04;100.00;99992.44;5113915;28;20565;-74
2021/07/17 02:54:35;;;;;;;24.92;18.75;;;;;;;16.03;100.00;99990.72;5113921;28;20637;-73
2021/07/17 02:57:01;;;;;;;23.85;17.75;;;;;;;15.97;100.00;99993.03;5113822;28;20230;-75
2021/07/17 02:59:28;;;;;;;24.92;17.67;;;;;;;16.04;100.00;99992.44;5113910;28;20202;-73
2021/07/17 03:01:54;;;;;;;21.92;17.40;;;;;;;15.96;100.00;99992.16;5113733;28;20547;-75
2021/07/17 03:04:22;;;;;;;20.52;16.55;;;;;;;15.86;100.00;99982.97;5113408;28;20223;-74
2021/07/17 03:06:49;;;;;;;21.42;17.55;;;;;;;15.67;100.00;99987.97;5113297;28;20195;-74
2021/07/17 03:09:15;;;;;;;22.60;16.85;;;;;;;15.77;100.00;99991.78;5113496;28;20190;-74
2021/07/17 03:11:42;;;;;;;23.67;18.13;;;;;;;15.80;100.00;99976.13;5113598;28;20186;-74
2021/07/17 03:14:08;;;;;;;24.20;17.73;;;;;;;15.83;100.00;99977.78;5112649;28;20282;-73
2021/07/17 03:16:37;;;;;;;24.38;18.55;;;;;;;15.83;100.00;99975.91;5113074;28;20210;-73
2021/07/17 03:19:04;;;;;;;20.75;17.13;;;;;;;15.64;100.00;99972.78;5113542;28;20591;-73
2021/07/17 03:21:32;;;;;;;24.33;18.33;;;;;;;15.55;100.00;99971.59;5113158;28;20239;-75
2021/07/17 03:23:58;;;;;;;20.48;16.60;;;;;;;15.58;100.00;99974.09;5113059;28;20188;-74
2021/07/17 03:26:25;;;;;;;19.77;17.42;;;;;;;15.81;100.00;99971.59;5113217;28;20187;-74
2021/07/17 03:28:51;;;;;;;24.48;18.50;;;;;;;15.71;100.00;99973.22;5113894;28;20209;-74
2021/07/17 03:31:26;;;;;;;20.58;16.42;;;;;;;15.70;100.00;99969.63;5113576;28;20636;-73
2021/07/17 03:33:52;;;;;;;25.25;17.38;;;;;;;15.80;100.00;99970.69;5113667;28;20185;-74
2021/07/17 03:36:19;;;;;;;22.52;17.15;;;;;;;15.84;100.00;99974.91;5113192;28;20283;-74
2021/07/17 03:38:47;;;;;;;29.00;18.65;;;;;;;15.81;100.00;99967.00;5113130;28;20289;-74
2021/07/17 03:41:13;;;;;;;25.10;18.15;;;;;;;15.70;100.00;99966.91;5113403;28;20187;-74
2021/07/17 03:43:40;;;;;;;24.75;17.23;;;;;;;15.64;100.00;99970.91;5113439;28;20202;-74
2021/07/17 03:46:06;;;;;;;26.40;18.17;;;;;;;15.69;100.00;99976.00;5113032;28;20188;-74
2021/07/17 03:48:33;;;;;;;24.85;18.20;;;;;;;15.79;100.00;99974.41;5113352;28;20187;-74
2021/07/17 03:50:59;;;;;;;18.73;16.35;;;;;;;15.89;100.00;99971.88;5113024;28;20669;-74
2021/07/17 03:53:27;;;;;;;25.15;17.02;;;;;;;15.80;100.00;99976.13;5114887;28;20214;-74
2021/07/17 03:55:54;;;;;;;24.50;16.65;;;;;;;15.82;100.00;99970.59;5117299;28;20183;-70
2021/07/17 03:58:22;;;;;;;27.80;17.80;;;;;;;15.80;100.00;99969.84;5116964;28;20317;-72
2021/07/17 04:00:49;;;;;;;24.65;17.88;;;;;;;15.70;100.00;99974.19;5116912;28;20290;-71
2021/07/17 04:03:15;;;;;;;21.88;17.30;;;;;;;15.47;100.00;99970.41;5116549;28;20409;-71
2021/07/17 04:05:42;;;;;;;23.15;18.10;;;;;;;15.52;100.00;99973.69;5116939;28;20277;-71
2021/07/17 04:08:08;;;;;;;23.88;17.02;;;;;;;15.48;100.00;99983.88;5117930;28;20609;-74
2021/07/17 04:10:36;;;;;;;25.83;18.40;;;;;;;15.38;100.00;99989.13;5117486;28;20531;-74
2021/07/17 04:13:05;;;;;;;21.23;16.63;;;;;;;15.57;100.00;99987.78;5117100;28;20182;-74
2021/07/17 04:15:32;;;;;;;22.08;17.88;;;;;;;15.66;100.00;99997.09;5117083;28;20202;-74
2021/07/17 04:17:58;;;;;;;20.23;16.42;;;;;;;15.88;100.00;99997.28;5117087;28;20207;-74
2021/07/17 04:20:25;;;;;;;22.10;16.33;;;;;;;16.20;100.00;100000.31;5116814;28;20202;-73
2021/07/17 04:22:52;;;;;;;22.05;16.80;;;;;;;16.31;98.44;99999.53;5117129;28;20274;-74
2021/07/17 04:25:18;;;;;;;23.23;16.30;;;;;;;16.34;97.61;99992.97;5116749;28;20199;-74
2021/07/17 04:27:45;;;;;;;23.55;16.73;;;;;;;16.49;97.17;99991.81;5116663;28;20190;-74
2021/07/17 04:30:14;;;;;;;22.35;16.38;;;;;;;16.67;95.89;99992.25;5117087;28;20179;-74
2021/07/17 04:32:40;;;;;;;24.33;15.65;;;;;;;16.85;94.63;99988.13;5116836;28;20286;-74
2021/07/17 04:35:08;;;;;;;23.73;18.15;;;;;;;16.75;94.08;99992.50;5116445;28;20184;-73
2021/07/17 04:37:35;;;;;;;18.88;16.33;;;;;;;16.81;94.16;99997.50;5116332;28;20254;-74
2021/07/17 04:40:02;;;;;;;19.45;15.65;;;;;;;16.73;94.52;99999.06;5116694;28;20234;-74
2021/07/17 04:42:28;;;;;;;20.77;16.42;;;;;;;16.54;95.82;100005.06;5116531;28;20190;-74
2021/07/17 04:44:55;;;;;;;21.75;16.50;;;;;;;16.44;97.05;99997.59;5116488;28;20289;-74
2021/07/17 04:47:23;;;;;;;19.55;16.17;;;;;;;16.43;97.21;100004.00;5116391;28;20191;-74
2021/07/17 04:49:50;;;;;;;23.65;17.38;;;;;;;16.33;98.58;100002.13;5115763;28;20191;-74
2021/07/17 04:52:16;;;;;;;20.80;15.73;;;;;;;16.59;97.56;100000.97;5116053;28;20209;-74
2021/07/17 04:54:43;;;;;;;23.40;16.05;;;;;;;16.70;97.20;100007.47;5116000;28;20183;-74
2021/07/17 04:57:09;;;;;;;19.40;16.15;;;;;;;16.98;94.90;100009.81;5115798;28;20219;-74
2021/07/17 04:59:36;;;;;;;18.88;16.00;;;;;;;17.26;93.30;100008.47;5115847;28;20194;-74
2021/07/17 05:02:03;;;;;;;20.50;16.80;;;;;;;17.25;92.79;99997.72;5116083;28;20290;-73
2021/07/17 05:04:31;;;;;;;21.00;16.73;;;;;;;17.40;91.92;100007.38;5115456;28;20231;-74
2021/07/17 05:06:58;;;;;;;24.15;16.80;;;;;;;17.13;92.62;100001.41;5115873;28;20224;-73
2021/07/17 05:09:24;;;;;;;19.25;16.55;;;;;;;17.07;93.92;100000.94;5115922;28;20188;-75
2021/07/17 05:11:51;;;;;;;20.40;15.38;;;;;;;17.12;94.14;100003.28;5115543;28;20201;-74
2021/07/17 05:14:17;;;;;;;23.65;17.13;;;;;;;17.40;92.35;100007.38;5115588;28;20184;-74
2021/07/17 05:16:44;;;;;;;20.98;16.33;;;;;;;17.49;91.96;100000.34;5115800;28;20201;-74
2021/07/17 05:19:10;;;;;;;18.08;15.70;;;;;;;17.56;90.37;99998.84;5115627;28;20283;-74
2021/07/17 05:21:38;;;;;;;19.30;15.82;;;;;;;17.41;91.56;100009.13;5115824;28;20281;-74
2021/07/17 05:24:05;;;;;;;18.92;15.82;;;;;;;17.53;91.28;99998.25;5115785;28;20206;-74
2021/07/17 05:26:32;;;;;;;19.38;17.27;;;;;;;17.42;91.65;99990.94;5115988;28;20528;-73
2021/07/17 05:28:59;;;;;;;23.63;16.70;;;;;;;17.32;92.25;99989.94;5115923;28;20192;-73
2021/07/17 05:31:25;;;;;;;19.27;15.88;;;;;;;17.63;91.00;99993.78;5115773;28;20280;-73
2021/07/17 05:33:52;;;;;;;23.08;16.17;;;;;;;17.79;89.63;99996.09;5115889;28;20275;-73
2021/07/17 05:36:18;;;;;;;25.50;17.63;;;;;;;17.95;89.31;100009.38;5115669;28;20201;-74
2021/07/17 05:38:46;;;;;;;26.33;17.42;;;;;;;18.13;87.56;100016.91;5115706;28;20206;-74
2021/07/17 05:41:13;;;;;;;27.52;16.40;;;;;;;18.28;86.00;100024.78;5115777;28;20196;-74
2021/07/17 05:43:39;;;;;;;18.33;15.40;;;;;;;18.39;85.80;100023.88;5115433;28;20289;-73
2021/07/17 05:46:06;;;;;;;18.20;16.00;;;;;;;18.32;85.89;100021.66;5115548;28;20189;-73
2021/07/17 05:48:32;;;;;;;25.05;19.65;;;;;;;18.31;85.33;100017.19;5115367;28;20612;-73
2021/07/17 05:50:59;;;;;;;22.30;18.30;;;;;;;18.31;85.81;100014.47;5115498;28;20599;-73
2021/07/17 05:53:26;;;;;;;20.90;16.00;;;;;;;18.41;85.12;100017.31;5114977;28;20206;-73
2021/07/17 05:55:53;;;;;;;22.58;16.88;;;;;;;18.53;85.01;100009.94;5114760;28;20225;-74
2021/07/17 05:58:20;;;;;;;27.40;17.95;;;;;;;18.62;84.33;100013.75;5114805;28;20601;-74
2021/07/17 06:00:47;;;;;;;28.88;18.58;;;;;;;19.03;81.55;100012.94;5115125;28;20229;-74
2021/07/17 06:03:14;;;;;;;24.80;18.20;;;;;;;18.78;82.44;100022.38;5114713;28;20317;-74
2021/07/17 06:05:40;;;;;;;23.45;16.10;;;;;;;18.85;82.73;100015.41;5114819;28;20278;-73
2021/07/17 06:08:07;;;;;;;21.83;16.90;;;;;;;19.08;81.62;100018.84;5115199;28;20181;-74
2021/07/17 06:10:34;;;;;;;20.33;16.70;;;;;;;19.34;80.27;100013.84;5115005;28;20199;-74
2021/07/17 06:13:02;;;;;;;22.95;17.30;;;;;;;19.62;78.46;100013.28;5115031;28;20607;-73
2021/07/17 06:15:28;;;;;;;25.42;16.65;;;;;;;19.25;79.96;100014.66;5113763;28;20277;-73
2021/07/17 06:17:55;;;;;;;22.95;17.05;;;;;;;19.41;78.98;100022.38;5114387;28;20223;-73
2021/07/17 06:20:22;;;;;;;22.40;16.25;;;;;;;19.48;79.35;100019.97;5114797;28;20186;-73
2021/07/17 06:22:49;;;;;;;19.70;16.42;;;;;;;19.85;77.13;100019.44;5114630;28;20196;-74
2021/07/17 06:25:16;;;;;;;22.97;15.33;;;;;;;19.96;76.30;100016.59;5113262;28;20199;-74
2021/07/17 06:27:42;;;;;;;19.90;15.83;;;;;;;19.91;76.92;100017.00;5114095;28;20431;-74
2021/07/17 06:30:12;;;;;;;20.60;16.30;;;;;;;20.08;75.85;100012.75;5114481;28;20528;-74
2021/07/17 06:32:38;;;;;;;21.17;16.27;;;;;;;19.93;76.71;100016.88;5114246;28;20436;-74
2021/07/17 06:35:06;;;;;;;19.63;16.20;;;;;;;19.79;77.97;100029.06;5114566;28;20565;-74
2021/07/17 06:37:33;;;;;;;20.45;17.00;;;;;;;19.41;79.31;100026.97;5113825;28;20218;-74
2021/07/17 06:39:59;;;;;;;18.25;14.85;;;;;;;19.61;78.85;100023.34;5114547;28;20281;-73
2021/07/17 06:42:26;;;;;;;25.17;16.35;;;;;;;19.64;79.34;100023.06;5114538;28;20188;-74
2021/07/17 06:44:52;;;;;;;18.92;16.17;;;;;;;19.90;78.05;100028.06;5113735;28;20195;-74
2021/07/17 06:47:20;;;;;;;21.15;14.23;;;;;;;19.98;77.84;100030.97;5114404;28;20193;-74
2021/07/17 06:49:47;;;;;;;17.20;15.10;;;;;;;20.33;76.78;100035.97;5114630;28;20206;-73
2021/07/17 06:52:14;;;;;;;16.33;13.90;;;;;;;20.49;75.21;100037.28;5113992;28;20508;-74
2021/07/17 06:54:40;;;;;;;16.03;14.17;;;;;;;20.73;74.33;100026.78;5115439;28;20843;-72
2021/07/17 06:57:07;;;;;;;19.00;14.53;;;;;;;20.84;73.90;100039.47;5114528;28;20428;-74
2021/07/17 06:59:33;;;;;;;17.63;15.13;;;;;;;20.83;74.12;100026.81;5114268;28;20545;-73
2021/07/17 07:02:00;;;;;;;19.50;14.57;;;;;;;20.74;74.96;100035.91;5113989;28;20449;-73
2021/07/17 07:04:28;;;;;;;16.90;13.47;;;;;;;20.73;75.26;100036.88;5113802;28;20858;-74
2021/07/17 07:06:55;;;;;;;17.03;14.10;;;;;;;20.47;76.23;100047.50;5114786;28;20431;-74
2021/07/17 07:09:22;;;;;;;15.03;13.43;;;;;;;20.84;75.03;100050.41;5114222;28;20922;-74
2021/07/17 07:11:48;;;;;;;15.63;13.67;;;;;;;20.98;73.93;100058.22;5114349;28;20421;-74
2021/07/17 07:14:15;;;;;;;18.27;14.07;;;;;;;20.88;74.82;100046.41;5114382;28;20763;-74
2021/07/17 07:16:42;;;;;;;17.97;13.70;;;;;;;20.91;75.31;100046.09;5114403;28;20441;-73
2021/07/17 07:19:08;;;;;;;15.90;12.43;;;;;;;20.98;75.54;100046.38;5114279;28;20467;-74
2021/07/17 07:21:36;;;;;;;13.43;11.27;;;;;;;20.88;76.34;100040.91;5113406;28;20911;-74
2021/07/17 07:24:03;;;;;;;16.33;12.30;;;;;;;20.85;74.93;100038.47;5113985;28;20525;-74
2021/07/17 07:26:30;;;;;;;14.20;12.20;;;;;;;21.11;74.53;100040.63;5113995;28;20417;-73
2021/07/17 07:28:58;;;;;;;14.00;11.93;;;;;;;21.40;73.48;100044.19;5114035;28;20847;-74
2021/07/17 07:31:25;;;;;;;14.67;11.40;;;;;;;21.70;71.92;100042.22;5114037;28;20543;-74
2021/07/17 07:33:52;;;;;;;14.87;11.47;;;;;;;22.03;69.95;100037.19;5114041;28;20421;-73
2021/07/17 07:36:19;;;;;;;13.10;11.73;;;;;;;21.83;70.79;100044.63;5113935;28;20443;-74
2021/07/17 07:38:47;;;;;;;16.77;11.87;;;;;;;21.94;69.84;100041.69;5113693;28;20461;-73
2021/07/17 07:41:14;;;;;;;12.53;11.10;;;;;;;21.49;70.82;100039.69;5114313;28;20429;-74
2021/07/17 07:43:42;;;;;;;15.73;10.87;;;;;;;21.36;70.97;100048.19;5113430;28;20447;-73
2021/07/17 07:46:08;;;;;;;14.40;10.27;;;;;;;21.58;70.94;100051.66;5113906;28;20422;-73
2021/07/17 07:48:35;;;;;;;11.20;9.97;;;;;;;21.54;70.98;100050.22;5113807;28;20435;-74
2021/07/17 07:51:01;;;;;;;12.67;9.30;;;;;;;21.59;70.78;100048.72;5113751;28;20417;-74
2021/07/17 07:53:28;;;;;;;12.30;9.73;;;;;;;21.27;71.46;100060.03;5114010;28;20436;-75
2021/07/17 07:55:56;;;;;;;10.60;8.80;;;;;;;21.00;73.38;100066.25;5113745;28;20422;-74
2021/07/17 07:58:23;;;;;;;12.10;9.77;;;;;;;21.36;71.80;100067.38;5113378;28;20989;-74
2021/07/17 08:00:49;;;;;;;14.43;8.60;;;;;;;21.06;71.79;100067.56;5113487;28;20429;-73
2021/07/17 08:03:16;;;;;;;10.70;9.30;;;;;;;20.98;73.07;100069.16;5113234;28;20473;-73
2021/07/17 08:05:42;;;;;;;13.60;9.33;;;;;;;20.72;73.10;100070.75;5113874;28;20421;-73
2021/07/17 08:08:09;;;;;;;9.97;9.03;;;;;;;20.58;73.72;100066.56;5113387;28;20440;-73
2021/07/17 08:10:35;;;;;;;10.20;9.20;;;;;;;20.83;72.48;100065.13;5113104;28;20430;-73
2021/07/17 08:13:04;;;;;;;10.00;8.07;;;;;;;21.12;70.73;100073.34;5113317;28;20424;-73
2021/07/17 08:15:30;;;;;;;11.70;9.67;;;;;;;20.90;70.75;100071.75;5113886;28;20528;-75
2021/07/17 08:17:57;;;;;;;11.53;9.23;;;;;;;20.76;72.34;100083.13;5113556;28;20774;-73
2021/07/17 08:20:24;;;;;;;11.87;9.80;;;;;;;20.88;72.39;100075.66;5113188;28;20516;-73
2021/07/17 08:22:51;;;;;;;12.57;9.93;;;;;;;21.05;71.89;100077.63;5113677;28;20856;-73
2021/07/17 08:25:18;;;;;;;9.47;8.57;;;;;;;21.49;70.00;100074.44;5113364;28;20418;-73
2021/07/17 08:27:45;;;;;;;11.60;9.07;;;;;;;21.37;70.75;100079.19;5113622;28;20511;-74
2021/07/17 08:30:14;;;;;;;11.53;9.90;;;;;;;20.97;72.13;100083.00;5113480;28;20978;-72
2021/07/17 08:32:40;;;;;;;10.80;9.10;;;;;;;21.10;71.69;100086.31;5112754;28;20899;-75
2021/07/17 08:35:08;;;;;;;12.97;9.70;;;;;;;20.80;72.71;100084.56;5112673;28;20437;-74
2021/07/17 08:37:35;;;;;;;12.20;10.23;;;;;;;20.95;73.36;100082.25;5112718;28;20417;-74
2021/07/17 08:40:04;;;;;;;13.97;10.60;;;;;;;20.71;74.51;100086.28;5115178;28;20461;-73
2021/07/17 08:42:33;;;;;;;11.17;10.07;;;;;;;20.60;75.48;100095.50;5116425;28;20797;-73
2021/07/17 08:45:03;;;;;;;12.93;11.13;;;;;;;20.92;73.64;100083.44;5132422;27;20436;-73
2021/07/17 08:47:36;;;;;;;12.10;10.50;;;;;;;20.58;74.87;100082.97;5117396;28;20783;-73
2021/07/17 08:50:05;;;;;;;12.30;10.13;;;;;;;20.55;75.58;100086.78;5117268;28;20425;-74
2021/07/17 08:52:32;;;;;;;13.80;10.20;;;;;;;20.54;75.80;100085.06;5117160;28;20989;-74
2021/07/17 08:55:03;;;;;;;13.73;11.07;;;;;;;20.47;76.35;100086.66;5116622;28;20448;-73
2021/07/17 08:57:31;;;;;;;10.90;9.80;;;;;;;20.49;76.34;100087.38;5116880;28;21061;-73
2021/07/17 08:59:58;;;;;;;14.23;10.10;;;;;;;20.65;76.21;100095.06;5115969;28;20563;-73
2021/07/17 09:02:25;;;;;;;11.57;10.17;;;;;;;20.71;75.45;100086.28;5116436;28;20857;-74
2021/07/17 09:04:53;;;;;;;14.87;9.90;;;;;;;20.72;75.89;100087.16;5116965;28;20420;-73
2021/07/17 09:07:20;;;;;;;11.33;10.17;;;;;;;20.76;75.60;100080.41;5116855;28;20523;-74
2021/07/17 09:09:46;;;;;;;13.90;10.67;;;;;;;20.96;74.33;100078.50;5116974;28;20898;-73
2021/07/17 09:12:23;;;;;;;12.43;11.20;;;;;;;21.27;73.40;100084.69;5117291;28;20863;-74
2021/07/17 09:14:50;;;;;;;14.63;11.13;;;;;;;21.21;73.64;100079.78;5116849;28;20472;-73
2021/07/17 09:17:25;;;;;;;11.80;10.60;;;;;;;21.13;74.34;100079.66;5116727;28;20433;-73
2021/07/17 09:19:58;;;;;;;11.67;9.00;;;;;;;21.15;74.26;100075.78;5115994;28;20571;-73
2021/07/17 09:22:32;;;;;;;12.20;9.10;;;;;;;21.24;74.27;100085.00;5116544;28;20430;-74
2021/07/17 09:25:10;;;;;;;10.80;9.70;;;;;;;21.27;73.91;100076.47;5116018;28;20435;-72
2021/07/17 09:27:37;;;;;;;18.20;13.27;;;;;;;21.34;73.92;100071.28;5116848;28;20425;-73
2021/07/17 09:30:05;;;;;;;10.37;8.97;;;;;;;21.50;72.29;100057.84;5116543;28;20546;-73
2021/07/17 09:32:32;;;;;;;13.50;10.93;;;;;;;21.99;70.45;100053.06;5116684;28;20441;-73
2021/07/17 09:35:12;;;;;;;10.00;9.00;;;;;;;22.55;67.82;100056.66;5116994;28;20502;-72
2021/07/17 09:37:38;;;;;;;11.53;9.70;;;;;;;22.85;66.38;100055.41;5116081;28;20432;-73
2021/07/17 09:40:10;;;;;;;11.07;9.73;;;;;;;23.09;65.15;100057.56;5116695;28;20833;-73
2021/07/17 09:42:43;;;;;;;10.47;9.37;;;;;;;22.74;66.33;100058.38;5116232;28;20441;-74
2021/07/17 09:45:10;;;;;;;12.30;9.43;;;;;;;22.71;66.55;100057.84;5116036;28;20764;-73
2021/07/17 09:47:37;;;;;;;11.03;9.93;;;;;;;22.86;65.72;100056.25;5115390;28;20439;-74
2021/07/17 09:50:16;;;;;;;10.60;8.90;;;;;;;22.66;66.44;100059.19;5116048;28;20509;-74
2021/07/17 09:52:43;;;;;;;11.60;10.40;;;;;;;22.83;65.99;100048.34;5115638;28;20779;-73
2021/07/17 09:55:12;;;;;;;15.53;11.93;;;;;;;22.65;66.87;100049.19;5116305;28;20428;-73
2021/07/17 09:57:40;;;;;;;10.20;8.70;;;;;;;23.19;65.22;100051.09;5115825;28;20508;-74
2021/07/17 10:00:09;;;;;;;11.83;9.90;;;;;;;23.51;63.80;100044.97;5115808;28;20995;-73
2021/07/17 10:02:39;;;;;;;13.73;9.90;;;;;;;23.76;62.76;100042.41;5114816;28;20899;-73
2021/07/17 10:05:06;;;;;;;11.40;10.30;;;;;;;23.88;62.08;100041.09;5115762;28;20992;-74
2021/07/17 10:07:35;;;;;;;10.27;9.13;;;;;;;24.25;61.25;100037.13;5115393;28;20434;-74
2021/07/17 10:10:01;;;;;;;11.70;10.57;;;;;;;24.40;60.51;100038.19;5115412;28;20447;-73
2021/07/17 10:12:34;;;;;;;10.37;9.37;;;;;;;23.88;62.00;100043.84;5115154;28;20433;-73
2021/07/17 10:15:01;;;;;;;10.03;9.03;;;;;;;23.91;62.27;100035.25;5115604;28;20444;-73
2021/07/17 10:17:36;;;;;;;10.20;9.30;;;;;;;23.55;63.49;100038.13;5114732;28;20504;-73
2021/07/17 10:20:04;;;;;;;10.50;9.47;;;;;;;23.22;65.06;100040.66;5114927;28;20469;-73
2021/07/17 10:22:31;;;;;;;11.77;9.50;;;;;;;22.98;66.12;100038.53;5114870;28;20912;-74
2021/07/17 10:24:59;;;;;;;12.00;9.93;;;;;;;23.73;63.95;100038.06;5115121;28;20510;-73
2021/07/17 10:27:26;;;;;;;10.43;9.10;;;;;;;23.75;63.51;100036.03;5114555;28;20444;-72
2021/07/17 10:29:52;;;;;;;11.33;10.03;;;;;;;23.80;63.41;100027.31;5115084;28;20430;-73
2021/07/17 10:32:19;;;;;;;11.10;9.90;;;;;;;24.13;62.32;100023.66;5114472;28;20543;-73
2021/07/17 10:34:47;;;;;;;12.30;10.47;;;;;;;24.20;61.85;100023.88;5114292;28;20456;-74
2021/07/17 10:37:23;;;;;;;11.70;9.17;;;;;;;23.82;63.36;100026.09;5114624;28;20790;-74
2021/07/17 10:39:59;;;;;;;10.83;9.83;;;;;;;24.39;61.83;100021.84;5114651;28;20460;-73
2021/07/17 10:42:28;;;;;;;10.13;9.10;;;;;;;24.34;61.96;100020.44;5114623;28;20521;-73
2021/07/17 10:44:55;;;;;;;12.93;10.33;;;;;;;24.47;60.59;100011.75;5114884;28;20938;-72
2021/07/17 10:47:23;;;;;;;11.43;9.87;;;;;;;24.85;60.17;100014.91;5114525;28;20433;-74
2021/07/17 10:49:51;;;;;;;10.23;9.20;;;;;;;24.63;60.50;100019.19;5114761;28;20508;-73
2021/07/17 10:52:37;;;;;;;15.30;9.83;;;;;;;23.06;66.85;100015.78;5114532;28;20417;-73
2021/07/17 10:55:26;;;;;;;10.23;9.13;;;;;;;22.79;67.94;100023.09;5114475;28;20429;-73
2021/07/17 10:57:55;;;;;;;12.80;9.40;;;;;;;22.67;68.88;100018.88;5114147;28;20863;-74
2021/07/17 11:00:47;;;;;;;11.57;9.90;;;;;;;23.13;67.21;100021.50;5113896;28;20524;-72
2021/07/17 11:03:19;;;;;;;13.80;10.40;;;;;;;22.89;67.79;100018.38;5113585;28;20479;-73
2021/07/17 11:05:46;;;;;;;12.27;11.07;;;;;;;23.02;67.69;100023.50;5113541;28;20425;-73
2021/07/17 11:08:33;;;;;;;12.00;10.63;;;;;;;22.93;68.10;100024.44;5114358;28;20923;-72
2021/07/17 11:11:01;;;;;;;11.30;10.30;;;;;;;22.74;69.20;100022.69;5114272;28;20953;-73
2021/07/17 11:13:34;;;;;;;12.03;10.33;;;;;;;23.41;66.91;100012.09;5113764;28;20918;-73
2021/07/17 11:16:01;;;;;;;13.60;10.97;;;;;;;23.89;65.04;100005.16;5113899;28;20444;-73